sensor_id;sensor_type;location;lat;lon;timestamp;P1;durP1;ratioP1;P2;durP2;ratioP2
37891;SDS011;45797;47.466;9.486;2023-12-28T00:00:16;2.00;;;1.00;;
37891;SDS011;45797;47.466;9.486;2023-12-28T00:11:16;1.40;;;0.70;;
37891;SDS011;45797;47.466;9.486;2023-12-28T00:16:37;3.40;;;1.43;;
37891;SDS011;45797;47.466;9.486;2023-12-28T00:21:57;1.20;;;0.60;;
37891;SDS011;45797;47.466;9.486;2023-12-28T00:27:27;1.20;;;0.60;;
37891;SDS011;45797;47.466;9.486;2023-12-28T00:32:53;0.73;;;0.50;;
37891;SDS011;45797;47.466;9.486;2023-12-28T00:38:14;1.70;;;0.30;;
37891;SDS011;45797;47.466;9.486;2023-12-28T00:43:36;7.67;;;0.50;;
37891;SDS011;45797;47.466;9.486;2023-12-28T00:48:58;1.97;;;0.83;;
37891;SDS011;45797;47.466;9.486;2023-12-28T00:54:29;1.97;;;0.90;;
37891;SDS011;45797;47.466;9.486;2023-12-28T00:59:52;3.00;;;1.30;;
37891;SDS011;45797;47.466;9.486;2023-12-28T01:05:23;4.27;;;1.40;;
37891;SDS011;45797;47.466;9.486;2023-12-28T01:10:56;4.20;;;1.93;;
37891;SDS011;45797;47.466;9.486;2023-12-28T01:16:18;4.90;;;2.13;;
37891;SDS011;45797;47.466;9.486;2023-12-28T01:21:43;4.07;;;1.97;;
37891;SDS011;45797;47.466;9.486;2023-12-28T01:27:05;1.97;;;0.73;;
37891;SDS011;45797;47.466;9.486;2023-12-28T01:32:36;8.82;;;2.78;;
37891;SDS011;45797;47.466;9.486;2023-12-28T01:37:59;6.90;;;2.83;;
37891;SDS011;45797;47.466;9.486;2023-12-28T01:48:46;6.93;;;3.00;;
37891;SDS011;45797;47.466;9.486;2023-12-28T01:54:15;6.33;;;3.20;;
37891;SDS011;45797;47.466;9.486;2023-12-28T01:59:36;6.57;;;2.93;;
37891;SDS011;45797;47.466;9.486;2023-12-28T02:04:58;9.13;;;3.53;;
37891;SDS011;45797;47.466;9.486;2023-12-28T02:10:26;9.47;;;3.87;;
37891;SDS011;45797;47.466;9.486;2023-12-28T02:15:49;7.07;;;2.17;;
37891;SDS011;45797;47.466;9.486;2023-12-28T02:21:30;6.30;;;3.00;;
37891;SDS011;45797;47.466;9.486;2023-12-28T02:26:52;5.87;;;2.53;;
37891;SDS011;45797;47.466;9.486;2023-12-28T02:32:14;2.77;;;1.37;;
37891;SDS011;45797;47.466;9.486;2023-12-28T02:37:46;6.37;;;2.90;;
37891;SDS011;45797;47.466;9.486;2023-12-28T02:48:42;7.20;;;3.13;;
37891;SDS011;45797;47.466;9.486;2023-12-28T02:54:06;5.20;;;2.27;;
37891;SDS011;45797;47.466;9.486;2023-12-28T02:59:27;5.87;;;2.70;;
37891;SDS011;45797;47.466;9.486;2023-12-28T03:04:48;6.20;;;2.73;;
37891;SDS011;45797;47.466;9.486;2023-12-28T03:10:08;4.20;;;1.83;;
37891;SDS011;45797;47.466;9.486;2023-12-28T03:15:32;4.53;;;1.73;;
37891;SDS011;45797;47.466;9.486;2023-12-28T03:21:02;5.07;;;2.10;;
37891;SDS011;45797;47.466;9.486;2023-12-28T03:26:30;3.77;;;2.07;;
37891;SDS011;45797;47.466;9.486;2023-12-28T03:31:50;4.87;;;1.73;;
37891;SDS011;45797;47.466;9.486;2023-12-28T03:37:28;3.53;;;1.70;;
37891;SDS011;45797;47.466;9.486;2023-12-28T03:42:49;5.10;;;2.20;;
37891;SDS011;45797;47.466;9.486;2023-12-28T03:53:44;6.13;;;2.17;;
37891;SDS011;45797;47.466;9.486;2023-12-28T04:04:29;3.37;;;1.47;;
37891;SDS011;45797;47.466;9.486;2023-12-28T04:09:58;3.83;;;1.30;;
37891;SDS011;45797;47.466;9.486;2023-12-28T04:15:18;2.27;;;1.10;;
37891;SDS011;45797;47.466;9.486;2023-12-28T04:20:42;1.73;;;0.90;;
37891;SDS011;45797;47.466;9.486;2023-12-28T04:26:03;1.80;;;1.00;;
37891;SDS011;45797;47.466;9.486;2023-12-28T04:31:31;2.53;;;1.30;;
37891;SDS011;45797;47.466;9.486;2023-12-28T04:36:52;1.50;;;0.60;;
37891;SDS011;45797;47.466;9.486;2023-12-28T04:42:13;2.77;;;1.33;;
37891;SDS011;45797;47.466;9.486;2023-12-28T04:47:36;2.72;;;1.40;;
37891;SDS011;45797;47.466;9.486;2023-12-28T04:58:27;1.27;;;0.80;;
37891;SDS011;45797;47.466;9.486;2023-12-28T05:04:03;5.97;;;2.83;;
37891;SDS011;45797;47.466;9.486;2023-12-28T05:09:24;5.63;;;2.13;;
37891;SDS011;45797;47.466;9.486;2023-12-28T05:20:09;6.30;;;2.37;;
37891;SDS011;45797;47.466;9.486;2023-12-28T05:25:30;4.13;;;1.57;;
37891;SDS011;45797;47.466;9.486;2023-12-28T05:30:51;3.73;;;1.63;;
37891;SDS011;45797;47.466;9.486;2023-12-28T05:36:12;1.80;;;1.00;;
37891;SDS011;45797;47.466;9.486;2023-12-28T05:41:40;2.03;;;0.70;;
37891;SDS011;45797;47.466;9.486;2023-12-28T05:47:00;3.10;;;1.00;;
37891;SDS011;45797;47.466;9.486;2023-12-28T05:52:22;1.43;;;0.63;;
37891;SDS011;45797;47.466;9.486;2023-12-28T05:57:50;1.23;;;0.60;;
37891;SDS011;45797;47.466;9.486;2023-12-28T06:03:11;3.10;;;0.47;;
37891;SDS011;45797;47.466;9.486;2023-12-28T06:08:33;1.20;;;0.50;;
37891;SDS011;45797;47.466;9.486;2023-12-28T06:13:54;1.90;;;0.73;;
37891;SDS011;45797;47.466;9.486;2023-12-28T06:19:17;1.17;;;0.60;;
37891;SDS011;45797;47.466;9.486;2023-12-28T06:24:38;0.60;;;0.40;;
37891;SDS011;45797;47.466;9.486;2023-12-28T06:30:08;1.52;;;0.85;;
37891;SDS011;45797;47.466;9.486;2023-12-28T06:35:30;1.98;;;0.80;;
37891;SDS011;45797;47.466;9.486;2023-12-28T06:40:51;1.20;;;0.65;;
37891;SDS011;45797;47.466;9.486;2023-12-28T06:46:12;3.92;;;0.68;;
37891;SDS011;45797;47.466;9.486;2023-12-28T06:51:40;1.00;;;0.50;;
37891;SDS011;45797;47.466;9.486;2023-12-28T06:57:03;0.82;;;0.45;;
37891;SDS011;45797;47.466;9.486;2023-12-28T07:02:23;1.15;;;0.63;;
37891;SDS011;45797;47.466;9.486;2023-12-28T07:07:46;1.10;;;0.40;;
37891;SDS011;45797;47.466;9.486;2023-12-28T07:18:41;1.08;;;0.60;;
37891;SDS011;45797;47.466;9.486;2023-12-28T07:29:37;6.07;;;1.98;;
37891;SDS011;45797;47.466;9.486;2023-12-28T07:34:58;3.72;;;1.85;;
37891;SDS011;45797;47.466;9.486;2023-12-28T07:40:19;4.38;;;2.45;;
37891;SDS011;45797;47.466;9.486;2023-12-28T07:45:40;3.92;;;2.25;;
37891;SDS011;45797;47.466;9.486;2023-12-28T07:56:43;5.50;;;2.40;;
37891;SDS011;45797;47.466;9.486;2023-12-28T08:02:11;4.70;;;2.80;;
37891;SDS011;45797;47.466;9.486;2023-12-28T08:12:55;7.68;;;3.00;;
37891;SDS011;45797;47.466;9.486;2023-12-28T08:18:17;5.68;;;2.50;;
37891;SDS011;45797;47.466;9.486;2023-12-28T08:23:46;5.75;;;2.65;;
37891;SDS011;45797;47.466;9.486;2023-12-28T08:34:34;3.67;;;2.10;;
37891;SDS011;45797;47.466;9.486;2023-12-28T08:39:54;4.18;;;1.95;;
37891;SDS011;45797;47.466;9.486;2023-12-28T08:56:22;4.78;;;2.00;;
37891;SDS011;45797;47.466;9.486;2023-12-28T09:01:43;2.95;;;1.67;;
37891;SDS011;45797;47.466;9.486;2023-12-28T09:07:04;4.65;;;2.17;;
37891;SDS011;45797;47.466;9.486;2023-12-28T09:12:26;3.88;;;1.67;;
37891;SDS011;45797;47.466;9.486;2023-12-28T09:17:48;2.67;;;1.35;;
37891;SDS011;45797;47.466;9.486;2023-12-28T09:23:18;2.47;;;1.17;;
37891;SDS011;45797;47.466;9.486;2023-12-28T09:28:41;2.45;;;1.10;;
37891;SDS011;45797;47.466;9.486;2023-12-28T09:34:03;2.55;;;1.30;;
37891;SDS011;45797;47.466;9.486;2023-12-28T09:44:49;4.53;;;1.38;;
37891;SDS011;45797;47.466;9.486;2023-12-28T10:01:01;9.23;;;4.20;;
37891;SDS011;45797;47.466;9.486;2023-12-28T10:06:25;7.40;;;3.45;;
37891;SDS011;45797;47.466;9.486;2023-12-28T10:11:48;5.72;;;3.00;;
37891;SDS011;45797;47.466;9.486;2023-12-28T10:17:09;5.60;;;3.17;;
37891;SDS011;45797;47.466;9.486;2023-12-28T10:22:29;9.75;;;3.70;;
37891;SDS011;45797;47.466;9.486;2023-12-28T10:28:04;7.30;;;3.67;;
37891;SDS011;45797;47.466;9.486;2023-12-28T10:33:36;7.28;;;3.95;;
37891;SDS011;45797;47.466;9.486;2023-12-28T10:38:57;7.28;;;3.80;;
37891;SDS011;45797;47.466;9.486;2023-12-28T10:44:23;8.98;;;3.92;;
37891;SDS011;45797;47.466;9.486;2023-12-28T10:49:48;7.38;;;3.60;;
37891;SDS011;45797;47.466;9.486;2023-12-28T11:00:53;10.57;;;4.18;;
37891;SDS011;45797;47.466;9.486;2023-12-28T11:06:18;8.70;;;3.80;;
37891;SDS011;45797;47.466;9.486;2023-12-28T11:11:40;10.43;;;4.65;;
37891;SDS011;45797;47.466;9.486;2023-12-28T11:17:03;6.82;;;4.00;;
37891;SDS011;45797;47.466;9.486;2023-12-28T11:22:25;8.45;;;3.85;;
37891;SDS011;45797;47.466;9.486;2023-12-28T11:33:42;11.93;;;4.25;;
37891;SDS011;45797;47.466;9.486;2023-12-28T11:39:05;11.88;;;4.63;;
37891;SDS011;45797;47.466;9.486;2023-12-28T11:44:26;6.82;;;4.10;;
37891;SDS011;45797;47.466;9.486;2023-12-28T11:49:49;10.55;;;4.57;;
37891;SDS011;45797;47.466;9.486;2023-12-28T12:00:41;8.70;;;4.70;;
37891;SDS011;45797;47.466;9.486;2023-12-28T12:06:03;11.00;;;5.53;;
37891;SDS011;45797;47.466;9.486;2023-12-28T12:11:24;11.55;;;5.60;;
37891;SDS011;45797;47.466;9.486;2023-12-28T12:16:45;7.85;;;4.22;;
37891;SDS011;45797;47.466;9.486;2023-12-28T12:22:07;9.02;;;4.63;;
37891;SDS011;45797;47.466;9.486;2023-12-28T12:27:27;8.82;;;4.60;;
37891;SDS011;45797;47.466;9.486;2023-12-28T12:32:57;12.43;;;5.20;;
37891;SDS011;45797;47.466;9.486;2023-12-28T12:38:18;9.35;;;4.97;;
37891;SDS011;45797;47.466;9.486;2023-12-28T12:43:47;10.60;;;5.15;;
37891;SDS011;45797;47.466;9.486;2023-12-28T12:49:08;9.93;;;5.25;;
37891;SDS011;45797;47.466;9.486;2023-12-28T12:54:31;10.13;;;4.90;;
37891;SDS011;45797;47.466;9.486;2023-12-28T12:59:52;9.10;;;4.40;;
37891;SDS011;45797;47.466;9.486;2023-12-28T13:05:14;4.70;;;2.20;;
37891;SDS011;45797;47.466;9.486;2023-12-28T13:10:35;8.93;;;4.10;;
37891;SDS011;45797;47.466;9.486;2023-12-28T13:16:04;11.70;;;5.60;;
37891;SDS011;45797;47.466;9.486;2023-12-28T13:21:26;10.55;;;4.80;;
37891;SDS011;45797;47.466;9.486;2023-12-28T13:26:46;10.95;;;5.03;;
37891;SDS011;45797;47.466;9.486;2023-12-28T13:48:26;10.45;;;5.20;;
37891;SDS011;45797;47.466;9.486;2023-12-28T13:59:11;13.98;;;6.00;;
37891;SDS011;45797;47.466;9.486;2023-12-28T14:04:32;10.75;;;5.65;;
37891;SDS011;45797;47.466;9.486;2023-12-28T14:09:53;10.85;;;4.63;;
37891;SDS011;45797;47.466;9.486;2023-12-28T14:15:14;9.93;;;4.55;;
37891;SDS011;45797;47.466;9.486;2023-12-28T14:20:37;6.93;;;4.22;;
37891;SDS011;45797;47.466;9.486;2023-12-28T14:25:58;5.97;;;3.13;;
37891;SDS011;45797;47.466;9.486;2023-12-28T14:31:18;7.72;;;3.45;;
37891;SDS011;45797;47.466;9.486;2023-12-28T14:36:40;4.50;;;2.30;;
37891;SDS011;45797;47.466;9.486;2023-12-28T14:42:02;5.10;;;2.20;;
37891;SDS011;45797;47.466;9.486;2023-12-28T14:47:24;4.47;;;2.00;;
37891;SDS011;45797;47.466;9.486;2023-12-28T14:52:45;4.03;;;1.70;;
37891;SDS011;45797;47.466;9.486;2023-12-28T14:58:09;3.35;;;1.50;;
37891;SDS011;45797;47.466;9.486;2023-12-28T15:03:29;4.32;;;2.20;;
37891;SDS011;45797;47.466;9.486;2023-12-28T15:14:14;3.90;;;1.98;;
37891;SDS011;45797;47.466;9.486;2023-12-28T15:19:37;3.30;;;1.42;;
37891;SDS011;45797;47.466;9.486;2023-12-28T15:24:58;4.15;;;1.60;;
37891;SDS011;45797;47.466;9.486;2023-12-28T15:30:21;3.30;;;1.48;;
37891;SDS011;45797;47.466;9.486;2023-12-28T15:41:28;7.00;;;3.58;;
37891;SDS011;45797;47.466;9.486;2023-12-28T15:47:06;10.38;;;4.30;;
37891;SDS011;45797;47.466;9.486;2023-12-28T15:52:28;8.65;;;4.20;;
37891;SDS011;45797;47.466;9.486;2023-12-28T15:58:06;9.20;;;3.67;;
37891;SDS011;45797;47.466;9.486;2023-12-28T16:08:52;4.65;;;2.30;;
37891;SDS011;45797;47.466;9.486;2023-12-28T16:14:14;4.10;;;2.03;;
37891;SDS011;45797;47.466;9.486;2023-12-28T16:19:34;6.18;;;2.30;;
37891;SDS011;45797;47.466;9.486;2023-12-28T16:24:55;4.18;;;2.05;;
37891;SDS011;45797;47.466;9.486;2023-12-28T16:30:21;6.00;;;2.38;;
37891;SDS011;45797;47.466;9.486;2023-12-28T16:35:42;9.15;;;4.35;;
37891;SDS011;45797;47.466;9.486;2023-12-28T16:41:04;5.00;;;2.30;;
37891;SDS011;45797;47.466;9.486;2023-12-28T16:46:25;4.75;;;2.35;;
37891;SDS011;45797;47.466;9.486;2023-12-28T16:51:46;8.30;;;3.60;;
37891;SDS011;45797;47.466;9.486;2023-12-28T16:57:09;4.57;;;2.35;;
37891;SDS011;45797;47.466;9.486;2023-12-28T17:02:31;4.50;;;1.70;;
37891;SDS011;45797;47.466;9.486;2023-12-28T17:07:54;4.80;;;1.50;;
37891;SDS011;45797;47.466;9.486;2023-12-28T17:18:42;3.13;;;1.60;;
37891;SDS011;45797;47.466;9.486;2023-12-28T17:24:04;2.55;;;1.30;;
37891;SDS011;45797;47.466;9.486;2023-12-28T17:29:31;3.90;;;2.00;;
37891;SDS011;45797;47.466;9.486;2023-12-28T17:40:18;2.80;;;1.33;;
37891;SDS011;45797;47.466;9.486;2023-12-28T17:45:51;4.43;;;1.40;;
37891;SDS011;45797;47.466;9.486;2023-12-28T17:51:25;7.18;;;2.00;;
37891;SDS011;45797;47.466;9.486;2023-12-28T17:56:49;3.42;;;1.08;;
37891;SDS011;45797;47.466;9.486;2023-12-28T18:02:10;3.00;;;1.20;;
37891;SDS011;45797;47.466;9.486;2023-12-28T18:07:36;4.90;;;1.90;;
37891;SDS011;45797;47.466;9.486;2023-12-28T18:12:56;3.90;;;1.55;;
37891;SDS011;45797;47.466;9.486;2023-12-28T18:18:26;5.03;;;1.63;;
37891;SDS011;45797;47.466;9.486;2023-12-28T18:23:46;3.35;;;1.58;;
37891;SDS011;45797;47.466;9.486;2023-12-28T18:29:07;6.50;;;2.28;;
37891;SDS011;45797;47.466;9.486;2023-12-28T18:34:34;5.57;;;2.13;;
37891;SDS011;45797;47.466;9.486;2023-12-28T18:39:54;5.15;;;1.38;;
37891;SDS011;45797;47.466;9.486;2023-12-28T18:45:15;3.13;;;1.10;;
37891;SDS011;45797;47.466;9.486;2023-12-28T18:50:47;7.97;;;2.85;;
37891;SDS011;45797;47.466;9.486;2023-12-28T18:56:07;6.07;;;2.40;;
37891;SDS011;45797;47.466;9.486;2023-12-28T19:01:28;5.30;;;2.85;;
37891;SDS011;45797;47.466;9.486;2023-12-28T19:12:13;4.00;;;1.65;;
37891;SDS011;45797;47.466;9.486;2023-12-28T19:22:59;3.33;;;1.67;;
37891;SDS011;45797;47.466;9.486;2023-12-28T19:28:20;3.92;;;1.92;;
37891;SDS011;45797;47.466;9.486;2023-12-28T19:33:55;5.90;;;1.90;;
37891;SDS011;45797;47.466;9.486;2023-12-28T19:39:16;4.85;;;1.50;;
37891;SDS011;45797;47.466;9.486;2023-12-28T19:44:36;2.45;;;1.42;;
37891;SDS011;45797;47.466;9.486;2023-12-28T19:50:00;3.70;;;1.50;;
37891;SDS011;45797;47.466;9.486;2023-12-28T19:55:22;3.90;;;1.30;;
37891;SDS011;45797;47.466;9.486;2023-12-28T20:00:42;5.43;;;1.13;;
37891;SDS011;45797;47.466;9.486;2023-12-28T20:06:06;2.47;;;1.30;;
37891;SDS011;45797;47.466;9.486;2023-12-28T20:11:28;2.90;;;1.08;;
37891;SDS011;45797;47.466;9.486;2023-12-28T20:22:16;3.15;;;1.08;;
37891;SDS011;45797;47.466;9.486;2023-12-28T20:27:50;4.45;;;1.27;;
37891;SDS011;45797;47.466;9.486;2023-12-28T20:33:19;3.13;;;1.52;;
37891;SDS011;45797;47.466;9.486;2023-12-28T20:38:47;4.80;;;1.20;;
37891;SDS011;45797;47.466;9.486;2023-12-28T20:44:08;4.90;;;2.00;;
37891;SDS011;45797;47.466;9.486;2023-12-28T20:49:32;4.60;;;2.42;;
37891;SDS011;45797;47.466;9.486;2023-12-28T20:54:54;5.82;;;1.88;;
37891;SDS011;45797;47.466;9.486;2023-12-28T21:00:21;3.42;;;1.38;;
37891;SDS011;45797;47.466;9.486;2023-12-28T21:05:42;3.60;;;1.50;;
37891;SDS011;45797;47.466;9.486;2023-12-28T21:11:03;3.78;;;1.50;;
37891;SDS011;45797;47.466;9.486;2023-12-28T21:16:24;3.72;;;1.70;;
37891;SDS011;45797;47.466;9.486;2023-12-28T21:21:47;2.75;;;1.33;;
37891;SDS011;45797;47.466;9.486;2023-12-28T21:27:09;3.70;;;1.48;;
37891;SDS011;45797;47.466;9.486;2023-12-28T21:32:36;4.78;;;1.98;;
37891;SDS011;45797;47.466;9.486;2023-12-28T21:37:58;8.48;;;1.75;;
37891;SDS011;45797;47.466;9.486;2023-12-28T21:43:21;4.35;;;1.55;;
37891;SDS011;45797;47.466;9.486;2023-12-28T21:48:43;4.28;;;1.80;;
37891;SDS011;45797;47.466;9.486;2023-12-28T21:54:18;3.33;;;1.50;;
37891;SDS011;45797;47.466;9.486;2023-12-28T21:59:40;3.85;;;1.50;;
37891;SDS011;45797;47.466;9.486;2023-12-28T22:05:02;3.45;;;1.77;;
37891;SDS011;45797;47.466;9.486;2023-12-28T22:10:33;3.72;;;1.33;;
37891;SDS011;45797;47.466;9.486;2023-12-28T22:15:56;3.95;;;1.33;;
37891;SDS011;45797;47.466;9.486;2023-12-28T22:21:17;4.40;;;1.80;;
37891;SDS011;45797;47.466;9.486;2023-12-28T22:26:44;5.95;;;2.45;;
37891;SDS011;45797;47.466;9.486;2023-12-28T22:32:07;3.95;;;1.80;;
37891;SDS011;45797;47.466;9.486;2023-12-28T22:37:28;5.43;;;2.00;;
37891;SDS011;45797;47.466;9.486;2023-12-28T22:42:51;4.07;;;1.70;;
37891;SDS011;45797;47.466;9.486;2023-12-28T22:48:14;4.28;;;1.80;;
37891;SDS011;45797;47.466;9.486;2023-12-28T22:53:39;3.33;;;1.40;;
37891;SDS011;45797;47.466;9.486;2023-12-28T23:04:24;2.67;;;1.20;;
37891;SDS011;45797;47.466;9.486;2023-12-28T23:09:54;2.83;;;1.00;;
37891;SDS011;45797;47.466;9.486;2023-12-28T23:15:15;1.63;;;0.80;;
37891;SDS011;45797;47.466;9.486;2023-12-28T23:20:36;2.65;;;1.00;;
37891;SDS011;45797;47.466;9.486;2023-12-28T23:25:57;1.90;;;1.00;;
37891;SDS011;45797;47.466;9.486;2023-12-28T23:31:25;1.95;;;1.00;;
37891;SDS011;45797;47.466;9.486;2023-12-28T23:36:46;3.70;;;1.00;;
37891;SDS011;45797;47.466;9.486;2023-12-28T23:42:11;1.63;;;0.73;;
37891;SDS011;45797;47.466;9.486;2023-12-28T23:47:33;2.38;;;1.10;;
37891;SDS011;45797;47.466;9.486;2023-12-28T23:58:25;1.52;;;0.73;;
